Impacts TAF Board INFO
FOR SITUATIONAL AWARENESS. NOT TO BE USED FOR FLIGHT PLANNING PURPOSES.
IDs:

KBOS - Boston/Logan Intl, MA, US

Issued at 0535 UTC 14 Dec 2017
Updated at 0622 UTC 14 Dec 2017
Potential Impact None Slight Moderate High
Time<<14/19Z 14/20Z 14/21Z 14/22Z 14/23Z 15/00Z 15/01Z 15/02Z 15/03Z 15/04Z 15/05Z 15/06Z 15/07Z>>
Type PRVL PRVL PRVL PRVL PRVL PRVL PRVL PRVL PRVL PRVL PRVL PRVL PRVL
VIS >6 >6 >6 >6 >6 >6 >6 >6 >6 >6 >6 >6 >6
CIG -- -- -- -- -- -- -- -- -- -- -- -- --
Cover SCT SCT SCT SCT SCT SCT SCT SCT SCT SCT SCT SCT SCT
FltCat VFR VFR VFR VFR VFR VFR VFR VFR VFR VFR VFR VFR VFR
WX -- -- -- -- -- -- -- -- -- -- -- -- --
WDir 290 290 290 290 290 290 290 290 290 290 290 290 290
WSpd 10 10 10 10 10 10 10 10 10 10 10 10 10
WGst 18 18 18 18 18 18 18 18 18 18 18 18 18

Raw TAF
KBOS 140535Z 1406/1512 26014G24KT P6SM BKN200
  FM141100 25008KT P6SM OVC040
  FM141400 29010KT P6SM OVC050
  FM141800 29010G18KT P6SM SCT070


METAR Board
Radar Display
Forecast Discussion

FOR SITUATIONAL AWARENESS. NOT TO BE USED FOR FLIGHT PLANNING PURPOSES.